Time;durP1;ratioP1;P1;durP2;ratioP2;P2;SDS_P1;SDS_P2;PMS_P1;PMS_P2;Temp;Humidity;BMP_temperature;BMP_pressure;BME280_temperature;BME280_humidity;BME280_pressure;Samples;Min_cycle;Max_cycle;Signal;HPM_P1;HPM_P2
2023/12/01 00:00:08;;;;;;;4.75;2.40;;;0.90;99.90;;;;;;5012886;28;20053;-72
2023/12/01 00:02:34;;;;;;;5.07;3.85;;;0.90;99.90;;;;;;5032717;28;20045;-72
2023/12/01 00:05:00;;;;;;;4.90;2.60;;;0.90;99.90;;;;;;5033271;28;20062;-71
2023/12/01 00:07:26;;;;;;;4.35;3.00;;;0.80;99.90;;;;;;4997284;28;20046;-71
2023/12/01 00:09:52;;;;;;;5.65;2.97;;;0.80;99.90;;;;;;5030127;28;20056;-71
2023/12/01 00:12:18;;;;;;;9.65;4.28;;;0.90;99.90;;;;;;5056183;28;20046;-72
2023/12/01 00:14:43;;;;;;;13.52;4.30;;;0.80;99.90;;;;;;5004983;28;20046;-72
2023/12/01 00:17:09;;;;;;;4.93;3.05;;;0.80;99.90;;;;;;5034486;28;20850;-72
2023/12/01 00:19:35;;;;;;;4.47;2.88;;;0.80;99.90;;;;;;5006500;28;20050;-71
2023/12/01 00:22:00;;;;;;;9.10;5.05;;;0.80;99.90;;;;;;5040280;28;20042;-72
2023/12/01 00:24:26;;;;;;;9.07;1.95;;;0.80;99.90;;;;;;5036673;28;20073;-72
2023/12/01 00:26:52;;;;;;;5.57;2.83;;;0.80;99.90;;;;;;5006382;28;20532;-71
2023/12/01 00:29:18;;;;;;;5.57;3.55;;;0.80;99.90;;;;;;5004605;28;20042;-71
2023/12/01 00:31:43;;;;;;;13.77;3.38;;;0.80;99.90;;;;;;5023237;28;20101;-72
2023/12/01 00:34:09;;;;;;;7.80;2.95;;;0.80;99.90;;;;;;5055274;28;20030;-72
2023/12/01 00:36:35;;;;;;;5.55;2.42;;;0.80;99.90;;;;;;5006481;28;20045;-72
2023/12/01 00:39:01;;;;;;;5.50;2.85;;;0.80;99.90;;;;;;5035186;28;20038;-72
2023/12/01 00:41:26;;;;;;;5.60;3.45;;;0.80;99.90;;;;;;5044026;28;20152;-72
2023/12/01 00:43:52;;;;;;;6.25;3.45;;;0.70;99.90;;;;;;5041999;28;20425;-72
2023/12/01 00:46:18;;;;;;;9.50;3.80;;;0.80;99.90;;;;;;5034517;28;20101;-71
2023/12/01 00:48:43;;;;;;;5.22;3.28;;;0.70;99.90;;;;;;5038173;28;20164;-72
2023/12/01 00:51:19;;;;;;;2.63;2.10;;;0.70;99.90;;;;;;5056075;28;20121;-72
2023/12/01 00:53:47;;;;;;;7.65;3.05;;;0.70;99.90;;;;;;5003412;28;20121;-71
2023/12/01 00:56:13;;;;;;;7.25;4.13;;;0.70;99.90;;;;;;5031276;28;20031;-72
2023/12/01 00:58:39;;;;;;;9.15;3.88;;;0.70;99.90;;;;;;5041378;28;20096;-72
2023/12/01 01:01:06;;;;;;;3.22;2.55;;;0.70;99.90;;;;;;5002201;28;20410;-71
2023/12/01 01:03:32;;;;;;;6.10;3.45;;;0.70;99.90;;;;;;5005424;28;20069;-72
2023/12/01 01:05:58;;;;;;;3.92;2.17;;;0.70;99.90;;;;;;5033317;28;20351;-72
2023/12/01 01:08:24;;;;;;;6.60;4.65;;;0.60;99.90;;;;;;5006648;28;20081;-72
2023/12/01 01:10:49;;;;;;;4.07;2.65;;;0.60;99.90;;;;;;5015905;28;20458;-72
2023/12/01 01:13:15;;;;;;;3.70;1.90;;;0.60;99.90;;;;;;5001423;28;20039;-72
2023/12/01 01:15:41;;;;;;;2.90;1.73;;;0.60;99.90;;;;;;5035846;28;20498;-72
2023/12/01 01:18:06;;;;;;;11.95;5.13;;;0.50;99.90;;;;;;5005180;28;20050;-72
2023/12/01 01:20:32;;;;;;;5.90;2.47;;;0.50;99.90;;;;;;5020439;28;20111;-72
2023/12/01 01:22:58;;;;;;;4.47;2.67;;;0.50;99.90;;;;;;5025581;28;20500;-72
2023/12/01 01:25:24;;;;;;;7.55;4.13;;;0.50;99.90;;;;;;5031354;28;20410;-72
2023/12/01 01:27:49;;;;;;;4.68;2.08;;;0.40;99.90;;;;;;5040111;28;20117;-72
2023/12/01 01:30:16;;;;;;;8.25;2.80;;;0.50;99.90;;;;;;5004877;28;20038;-72
2023/12/01 01:32:41;;;;;;;8.30;2.13;;;0.40;99.90;;;;;;5033436;28;20046;-72
2023/12/01 01:35:08;;;;;;;9.63;3.60;;;0.40;99.90;;;;;;5033093;28;20040;-71
2023/12/01 01:37:33;;;;;;;7.70;2.38;;;0.40;99.90;;;;;;5038499;28;20041;-71
2023/12/01 01:39:59;;;;;;;5.07;2.35;;;0.40;99.90;;;;;;5036553;28;20097;-72
2023/12/01 01:42:25;;;;;;;5.72;2.63;;;0.40;99.90;;;;;;4998140;28;20159;-72
2023/12/01 01:44:50;;;;;;;2.75;1.52;;;0.40;99.90;;;;;;5034669;28;20041;-71
2023/12/01 01:47:16;;;;;;;10.65;3.60;;;0.40;99.90;;;;;;5036347;28;20190;-71
2023/12/01 01:49:42;;;;;;;6.68;2.53;;;0.40;99.90;;;;;;5037998;28;20054;-71
2023/12/01 01:52:10;;;;;;;7.53;2.85;;;0.30;99.90;;;;;;5022931;28;20136;-71
2023/12/01 01:54:37;;;;;;;4.80;3.22;;;0.30;99.90;;;;;;5020560;28;20030;-72
2023/12/01 01:57:02;;;;;;;6.95;3.08;;;0.30;99.90;;;;;;5019187;28;20074;-71
2023/12/01 01:59:28;;;;;;;4.80;2.63;;;0.30;99.90;;;;;;4999949;28;20449;-72
2023/12/01 02:01:55;;;;;;;6.95;3.28;;;0.20;99.90;;;;;;5023849;28;20108;-71
2023/12/01 02:04:20;;;;;;;6.80;2.60;;;0.20;99.90;;;;;;5002709;28;20676;-71
2023/12/01 02:06:46;;;;;;;5.82;3.33;;;0.20;99.90;;;;;;5034534;28;20054;-72
2023/12/01 02:09:16;;;;;;;5.68;3.05;;;0.20;99.90;;;;;;4997419;28;20039;-71
2023/12/01 02:11:43;;;;;;;9.80;3.35;;;0.10;99.90;;;;;;5030922;28;20039;-71
2023/12/01 02:14:09;;;;;;;10.75;3.30;;;0.10;99.90;;;;;;5004118;28;20072;-71
2023/12/01 02:16:35;;;;;;;3.75;2.38;;;0.10;99.90;;;;;;5036235;28;20062;-71
2023/12/01 02:19:01;;;;;;;5.70;3.00;;;0.10;99.90;;;;;;4998075;28;20112;-71
2023/12/01 02:21:27;;;;;;;5.93;2.83;;;0.20;99.90;;;;;;5034596;28;20376;-71
2023/12/01 02:23:54;;;;;;;6.80;2.67;;;0.10;99.90;;;;;;5037481;28;20034;-71
2023/12/01 02:26:21;;;;;;;4.38;2.95;;;0.10;99.90;;;;;;5040276;28;20149;-72
2023/12/01 02:28:47;;;;;;;4.07;1.58;;;0.00;99.90;;;;;;5023358;28;20065;-72
2023/12/01 02:31:13;;;;;;;8.60;3.95;;;0.00;99.90;;;;;;5035558;28;20053;-71
2023/12/01 02:33:39;;;;;;;7.15;2.78;;;0.00;99.90;;;;;;5022299;28;20125;-71
2023/12/01 02:36:11;;;;;;;3.08;1.80;;;-0.10;99.90;;;;;;5037233;28;20044;-71
2023/12/01 02:38:37;;;;;;;5.13;2.67;;;-0.10;99.90;;;;;;5033784;28;20042;-72
2023/12/01 02:41:03;;;;;;;5.63;2.55;;;-0.10;99.90;;;;;;5017885;28;20051;-71
2023/12/01 02:43:29;;;;;;;2.53;1.48;;;-0.10;99.90;;;;;;5035749;28;20065;-71
2023/12/01 02:45:55;;;;;;;7.10;4.18;;;-0.10;99.90;;;;;;5003290;28;20042;-71
2023/12/01 02:48:21;;;;;;;2.97;2.45;;;-0.20;99.90;;;;;;5017058;28;20069;-71
2023/12/01 02:50:47;;;;;;;5.80;2.38;;;-0.20;99.90;;;;;;5021739;28;20049;-73
2023/12/01 02:53:15;;;;;;;2.90;2.17;;;-0.20;99.90;;;;;;5033550;28;20034;-71
2023/12/01 02:55:41;;;;;;;3.03;2.33;;;-0.20;99.90;;;;;;5006992;28;20172;-70
2023/12/01 02:58:07;;;;;;;4.95;3.47;;;-0.20;99.90;;;;;;5035963;28;20124;-70
2023/12/01 03:00:32;;;;;;;5.30;1.90;;;-0.20;99.90;;;;;;5003387;28;20033;-71
2023/12/01 03:02:58;;;;;;;4.10;2.70;;;-0.20;99.90;;;;;;5035855;28;20065;-71
2023/12/01 03:05:24;;;;;;;3.65;2.03;;;-0.20;99.90;;;;;;5034062;28;20065;-71
2023/12/01 03:07:50;;;;;;;4.82;2.75;;;-0.30;99.90;;;;;;5002048;28;20144;-71
2023/12/01 03:10:16;;;;;;;2.05;1.63;;;-0.30;99.90;;;;;;5033658;28;20378;-71
2023/12/01 03:12:43;;;;;;;6.85;3.97;;;-0.30;99.90;;;;;;5036202;28;20042;-71
2023/12/01 03:15:13;;;;;;;1.90;1.35;;;-0.30;99.90;;;;;;4992147;28;20172;-71
2023/12/01 03:17:39;;;;;;;5.18;2.05;;;-0.40;99.90;;;;;;5001478;28;20301;-72
2023/12/01 03:20:10;;;;;;;3.85;2.20;;;-0.40;99.90;;;;;;5001862;28;20526;-71
2023/12/01 03:22:41;;;;;;;3.00;1.85;;;-0.50;99.90;;;;;;5001129;28;20050;-71
2023/12/01 03:25:11;;;;;;;4.28;1.60;;;-0.50;99.90;;;;;;5019306;28;20049;-71
2023/12/01 03:27:41;;;;;;;2.45;2.25;;;-0.50;99.90;;;;;;5002140;28;20053;-71
2023/12/01 03:30:13;;;;;;;3.10;1.73;;;-0.60;99.90;;;;;;5006102;28;20406;-71
2023/12/01 03:32:46;;;;;;;5.10;2.78;;;-0.60;99.90;;;;;;5032829;28;20045;-72
2023/12/01 03:35:20;;;;;;;4.72;3.38;;;-0.60;99.90;;;;;;4997955;28;20048;-72
2023/12/01 03:37:46;;;;;;;3.05;2.75;;;-0.60;99.90;;;;;;5027841;28;20042;-72
2023/12/01 03:40:12;;;;;;;4.85;3.47;;;-0.70;99.90;;;;;;5029848;28;20494;-72
2023/12/01 03:42:44;;;;;;;3.22;2.25;;;-0.70;99.90;;;;;;5020129;28;20056;-72
2023/12/01 03:45:12;;;;;;;5.50;1.75;;;-0.70;99.90;;;;;;5031004;28;20117;-71
2023/12/01 03:47:48;;;;;;;4.45;2.28;;;-0.70;99.90;;;;;;5004354;28;20057;-72
2023/12/01 03:50:14;;;;;;;3.28;2.53;;;-0.80;99.90;;;;;;5039385;28;20073;-72
2023/12/01 03:52:45;;;;;;;5.13;1.38;;;-0.80;99.90;;;;;;5039828;28;20041;-72
2023/12/01 03:55:12;;;;;;;6.50;3.33;;;-0.80;99.90;;;;;;4998932;28;20084;-72
2023/12/01 03:57:39;;;;;;;6.40;3.75;;;-0.90;99.90;;;;;;5039872;28;20050;-72
2023/12/01 04:00:16;;;;;;;3.88;1.90;;;-0.90;99.90;;;;;;5035674;28;20184;-72
2023/12/01 04:02:46;;;;;;;9.70;3.63;;;-1.00;99.90;;;;;;5021290;28;20576;-72
2023/12/01 04:05:17;;;;;;;5.63;2.05;;;-1.00;99.90;;;;;;5032332;28;20419;-72
2023/12/01 04:07:44;;;;;;;2.17;1.98;;;-1.00;99.90;;;;;;5035271;28;20506;-72
2023/12/01 04:10:10;;;;;;;4.15;2.65;;;-1.10;99.90;;;;;;5039598;28;20060;-72
2023/12/01 04:12:46;;;;;;;7.00;3.65;;;-1.00;99.90;;;;;;5038310;28;20490;-72
2023/12/01 04:15:19;;;;;;;4.05;2.95;;;-1.00;99.90;;;;;;5005664;28;20053;-72
2023/12/01 04:17:47;;;;;;;2.85;1.55;;;-1.00;99.90;;;;;;5018437;28;20045;-73
2023/12/01 04:20:21;;;;;;;4.10;2.28;;;-1.00;99.90;;;;;;4989259;28;20116;-72
2023/12/01 04:22:52;;;;;;;4.32;2.25;;;-1.10;99.90;;;;;;5035569;28;20122;-71
2023/12/01 04:25:18;;;;;;;1.55;0.82;;;-1.10;99.90;;;;;;5002099;28;20524;-71
2023/12/01 04:27:47;;;;;;;9.18;3.95;;;-1.10;99.90;;;;;;5003705;28;20080;-71
2023/12/01 04:30:17;;;;;;;6.18;3.72;;;-1.20;99.90;;;;;;5040772;28;20074;-71
2023/12/01 04:32:48;;;;;;;4.95;2.67;;;-1.20;99.90;;;;;;5033213;28;20121;-71
2023/12/01 04:35:15;;;;;;;4.88;3.08;;;-1.10;99.90;;;;;;5001892;28;20045;-71
2023/12/01 04:37:41;;;;;;;8.18;2.83;;;-1.20;99.90;;;;;;5037628;28;20045;-71
2023/12/01 04:40:16;;;;;;;7.13;3.45;;;-1.30;99.90;;;;;;5038239;28;20038;-71
2023/12/01 04:42:47;;;;;;;8.10;3.75;;;-1.30;99.90;;;;;;5041304;28;20038;-71
2023/12/01 04:45:15;;;;;;;3.75;2.85;;;-1.40;99.90;;;;;;4992409;28;20070;-71
2023/12/01 04:47:43;;;;;;;2.63;1.88;;;-1.40;99.90;;;;;;5018094;28;20496;-70
2023/12/01 04:50:13;;;;;;;5.95;2.63;;;-1.50;99.90;;;;;;5007936;28;20078;-71
2023/12/01 04:52:58;;;;;;;5.50;3.30;;;-1.50;99.90;;;;;;5031520;28;20526;-70
2023/12/01 04:55:29;;;;;;;4.38;2.38;;;-1.50;99.90;;;;;;5036748;28;20059;-70
2023/12/01 04:57:55;;;;;;;9.18;2.97;;;-1.60;99.90;;;;;;5019588;28;20042;-70
2023/12/01 05:00:25;;;;;;;4.65;1.83;;;-1.60;99.90;;;;;;5035915;28;20081;-69
2023/12/01 05:03:11;;;;;;;9.70;3.40;;;-1.60;99.90;;;;;;5033383;28;20136;-70
2023/12/01 05:05:40;;;;;;;4.68;3.40;;;-1.70;99.90;;;;;;5009602;28;20176;-70
2023/12/01 05:08:08;;;;;;;5.45;3.55;;;-1.70;99.90;;;;;;5000722;28;20042;-70
2023/12/01 05:10:36;;;;;;;6.60;2.97;;;-1.80;99.90;;;;;;5038318;28;20514;-69
2023/12/01 05:13:04;;;;;;;4.78;2.92;;;-1.80;99.90;;;;;;5003963;28;20046;-69
2023/12/01 05:15:32;;;;;;;17.55;4.80;;;-1.80;99.90;;;;;;5005777;28;20045;-69
2023/12/01 05:18:04;;;;;;;4.97;1.95;;;-1.80;99.90;;;;;;5005352;28;20046;-69
2023/12/01 05:20:31;;;;;;;7.45;4.95;;;-1.80;99.90;;;;;;5004945;28;20046;-69
2023/12/01 05:23:05;;;;;;;2.97;2.13;;;-1.90;99.90;;;;;;5002339;28;20037;-69
2023/12/01 05:25:34;;;;;;;3.35;2.47;;;-1.90;99.90;;;;;;5007457;28;20455;-69
2023/12/01 05:28:10;;;;;;;14.13;3.47;;;-1.90;99.90;;;;;;5032392;28;20050;-69
2023/12/01 05:30:38;;;;;;;3.25;2.65;;;-1.90;99.90;;;;;;5037105;28;20145;-70
2023/12/01 05:33:07;;;;;;;9.63;3.58;;;-1.90;99.90;;;;;;5003301;28;20189;-69
2023/12/01 05:35:37;;;;;;;11.32;4.30;;;-2.00;99.90;;;;;;5034339;28;20041;-69
2023/12/01 05:38:04;;;;;;;6.75;3.65;;;-2.00;99.90;;;;;;5036773;28;20046;-70
2023/12/01 05:40:34;;;;;;;11.95;5.53;;;-2.00;99.90;;;;;;4996699;28;20736;-69
2023/12/01 05:43:00;;;;;;;5.82;3.53;;;-2.00;99.90;;;;;;5001496;28;20041;-69
2023/12/01 05:45:28;;;;;;;6.88;3.08;;;-2.00;99.90;;;;;;5033777;28;20053;-70
2023/12/01 05:47:55;;;;;;;10.93;2.78;;;-2.00;99.90;;;;;;5036063;28;20495;-69
2023/12/01 05:50:25;;;;;;;6.72;3.75;;;-2.10;99.90;;;;;;5006506;28;20048;-70
2023/12/01 05:52:56;;;;;;;3.40;2.28;;;-2.20;99.90;;;;;;5034446;28;20046;-69
2023/12/01 05:55:29;;;;;;;3.35;1.73;;;-2.20;99.90;;;;;;5048167;28;20042;-69
2023/12/01 05:58:10;;;;;;;9.07;4.53;;;-2.20;99.90;;;;;;5038253;28;20442;-69
2023/12/01 06:00:36;;;;;;;3.20;1.75;;;-2.20;99.90;;;;;;5035494;28;20293;-70
2023/12/01 06:03:09;;;;;;;9.05;4.53;;;-2.20;99.90;;;;;;5037231;28;20112;-69
2023/12/01 06:05:36;;;;;;;5.15;2.15;;;-2.20;99.90;;;;;;5001308;28;20498;-68
2023/12/01 06:08:03;;;;;;;2.75;1.98;;;-2.30;99.90;;;;;;5037316;28;20235;-68
2023/12/01 06:10:31;;;;;;;4.22;1.92;;;-2.30;99.90;;;;;;5001885;28;20498;-69
2023/12/01 06:12:58;;;;;;;5.32;2.58;;;-2.30;99.90;;;;;;5040255;28;20045;-69
2023/12/01 06:15:29;;;;;;;3.67;1.65;;;-2.30;99.90;;;;;;5003822;28;20056;-68
2023/12/01 06:18:00;;;;;;;5.97;2.85;;;-2.30;99.90;;;;;;5035674;28;20399;-69
2023/12/01 06:20:26;;;;;;;4.90;3.45;;;-2.30;99.90;;;;;;5002683;28;20114;-69
2023/12/01 06:22:57;;;;;;;3.60;2.05;;;-2.40;99.90;;;;;;5007438;28;20052;-69
2023/12/01 06:25:27;;;;;;;8.73;4.10;;;-2.40;99.90;;;;;;5033106;28;20121;-69
2023/12/01 06:27:56;;;;;;;9.18;3.92;;;-2.40;99.90;;;;;;5038141;28;20508;-69
2023/12/01 06:30:23;;;;;;;5.25;3.08;;;-2.50;99.90;;;;;;4996475;28;20050;-68
2023/12/01 06:32:50;;;;;;;4.70;2.30;;;-2.50;99.90;;;;;;5037625;28;20056;-69
2023/12/01 06:35:17;;;;;;;7.45;2.63;;;-2.50;99.90;;;;;;5035658;28;20065;-69
2023/12/01 06:37:44;;;;;;;5.22;2.72;;;-2.50;99.90;;;;;;5038356;28;20038;-69
2023/12/01 06:40:11;;;;;;;4.43;3.25;;;-2.60;99.90;;;;;;5039132;28;20117;-68
2023/12/01 06:43:09;;;;;;;5.57;2.63;;;-2.50;99.90;;;;;;5043084;28;20500;-69
2023/12/01 06:45:36;;;;;;;6.07;4.15;;;-2.60;99.90;;;;;;5002094;28;20052;-68
2023/12/01 06:48:01;;;;;;;5.63;3.08;;;-2.60;99.90;;;;;;4997528;28;20397;-68
2023/12/01 06:50:27;;;;;;;11.10;3.67;;;-2.60;99.90;;;;;;5007100;28;20046;-68
2023/12/01 06:52:53;;;;;;;3.35;1.92;;;-2.60;99.90;;;;;;5035137;28;20057;-68
2023/12/01 06:55:19;;;;;;;7.40;4.32;;;-2.70;99.90;;;;;;5027546;28;20412;-68
2023/12/01 06:57:48;;;;;;;4.85;2.35;;;-2.70;99.90;;;;;;5021242;28;20617;-68
2023/12/01 07:02:59;;;;;;;4.47;2.70;;;-2.70;99.90;;;;;;5034938;28;20482;-69
2023/12/01 07:05:25;;;;;;;5.28;2.03;;;-2.70;99.90;;;;;;5031890;28;20069;-69
2023/12/01 07:07:56;;;;;;;4.80;3.20;;;-2.70;99.90;;;;;;5036642;28;20044;-68
2023/12/01 07:10:22;;;;;;;6.43;1.77;;;-2.80;99.90;;;;;;5006320;28;20192;-68
2023/12/01 07:12:49;;;;;;;6.13;2.22;;;-2.80;99.90;;;;;;5039108;28;20412;-68
2023/12/01 07:15:20;;;;;;;13.40;4.22;;;-2.80;99.90;;;;;;5004425;28;20121;-70
2023/12/01 07:17:53;;;;;;;2.75;2.55;;;-2.90;99.90;;;;;;5033211;28;20052;-69
2023/12/01 07:20:20;;;;;;;6.53;3.58;;;-2.80;99.90;;;;;;5000969;28;20499;-68
2023/12/01 07:22:47;;;;;;;9.20;3.28;;;-2.90;99.90;;;;;;5041396;28;20081;-68
2023/12/01 07:25:24;;;;;;;7.75;2.15;;;-2.90;99.90;;;;;;5002368;28;20522;-69
2023/12/01 07:27:55;;;;;;;11.00;3.22;;;-2.90;99.90;;;;;;5004797;28;20120;-68
2023/12/01 07:30:21;;;;;;;6.65;3.53;;;-2.90;99.90;;;;;;5039173;28;20108;-68
2023/12/01 07:32:48;;;;;;;2.78;1.80;;;-2.90;99.90;;;;;;5036179;28;20108;-68
2023/12/01 07:35:14;;;;;;;5.78;3.08;;;-2.90;99.90;;;;;;5005812;28;20103;-68
2023/12/01 07:37:42;;;;;;;3.92;2.80;;;-2.90;99.90;;;;;;5036076;28;20045;-68
2023/12/01 07:40:12;;;;;;;3.72;2.67;;;-2.90;99.90;;;;;;5004732;28;20045;-68
2023/12/01 07:42:39;;;;;;;11.85;5.55;;;-2.90;99.90;;;;;;5035143;28;20053;-68
2023/12/01 07:45:06;;;;;;;5.03;2.88;;;-2.90;99.90;;;;;;5030834;28;20131;-68
2023/12/01 07:47:32;;;;;;;3.40;2.40;;;-2.90;99.90;;;;;;5034769;28;20415;-68
2023/12/01 07:49:59;;;;;;;6.13;3.28;;;-2.90;99.90;;;;;;5005226;28;20094;-67
2023/12/01 07:52:25;;;;;;;8.52;3.63;;;-2.90;99.90;;;;;;5005197;28;20057;-67
2023/12/01 07:54:51;;;;;;;2.75;1.95;;;-2.90;99.90;;;;;;5017814;28;20036;-67
2023/12/01 07:57:16;;;;;;;5.22;2.80;;;-2.90;99.90;;;;;;5002547;28;20039;-67
2023/12/01 07:59:43;;;;;;;6.35;4.18;;;-2.90;99.90;;;;;;5006684;28;20041;-68
2023/12/01 08:02:09;;;;;;;4.72;2.58;;;-2.90;99.90;;;;;;5006063;28;20445;-67
2023/12/01 08:04:35;;;;;;;7.57;2.25;;;-2.90;99.90;;;;;;4999432;28;20548;-67
2023/12/01 08:07:01;;;;;;;4.50;2.33;;;-2.80;99.90;;;;;;5030502;28;20041;-67
2023/12/01 08:09:31;;;;;;;7.53;1.90;;;-2.80;99.90;;;;;;4999404;28;20038;-67
2023/12/01 08:11:58;;;;;;;8.50;3.58;;;-2.80;99.90;;;;;;5034635;28;20508;-67
2023/12/01 08:14:25;;;;;;;6.65;2.65;;;-2.70;99.90;;;;;;4999884;28;20366;-67
2023/12/01 08:16:51;;;;;;;1.98;1.55;;;-2.70;99.90;;;;;;5007407;28;20053;-67
2023/12/01 08:19:17;;;;;;;6.50;4.00;;;-2.70;99.90;;;;;;4999364;28;20084;-67
2023/12/01 08:21:44;;;;;;;4.43;2.58;;;-2.70;99.90;;;;;;4991818;28;20061;-68
2023/12/01 08:24:12;;;;;;;5.90;2.35;;;-2.60;99.90;;;;;;4996495;28;20096;-67
2023/12/01 08:26:39;;;;;;;5.18;3.28;;;-2.60;99.90;;;;;;5032539;28;20046;-67
2023/12/01 08:29:08;;;;;;;5.50;2.40;;;-2.60;99.90;;;;;;5032844;28;20366;-68
2023/12/01 08:31:39;;;;;;;7.70;4.15;;;-2.60;99.90;;;;;;4998574;28;20057;-67
2023/12/01 08:34:09;;;;;;;2.45;1.45;;;-2.60;99.90;;;;;;5037491;28;20064;-67
2023/12/01 08:36:36;;;;;;;5.65;3.28;;;-2.50;99.90;;;;;;5004616;28;20038;-67
2023/12/01 08:39:03;;;;;;;9.15;4.07;;;-2.50;99.90;;;;;;5038679;28;20130;-67
2023/12/01 08:41:29;;;;;;;3.45;2.60;;;-2.50;99.90;;;;;;5004787;28;20045;-67
2023/12/01 08:43:55;;;;;;;8.15;3.45;;;-2.40;99.90;;;;;;5008165;28;20050;-67
2023/12/01 08:46:21;;;;;;;6.35;2.78;;;-2.40;99.90;;;;;;5010212;28;20045;-67
2023/12/01 08:48:47;;;;;;;5.50;3.45;;;-2.40;99.90;;;;;;5004537;28;20509;-67
2023/12/01 08:51:13;;;;;;;6.78;3.95;;;-2.40;99.90;;;;;;5037600;28;20056;-67
2023/12/01 08:53:38;;;;;;;10.27;3.88;;;-2.30;99.90;;;;;;5005349;28;20177;-67
2023/12/01 08:56:05;;;;;;;5.28;2.58;;;-2.30;99.90;;;;;;5001086;28;20301;-67
2023/12/01 08:58:30;;;;;;;8.23;3.75;;;-2.20;99.90;;;;;;5040178;28;20596;-67
2023/12/01 09:00:56;;;;;;;4.75;3.42;;;-2.20;99.90;;;;;;5003779;28;20125;-67
2023/12/01 09:03:22;;;;;;;3.90;2.33;;;-2.10;99.90;;;;;;5041170;28;20401;-67
2023/12/01 09:05:48;;;;;;;7.85;4.65;;;-2.10;99.90;;;;;;5039315;28;20038;-67
2023/12/01 09:08:15;;;;;;;3.63;3.08;;;-2.10;99.90;;;;;;5040020;28;20038;-67
2023/12/01 09:10:41;;;;;;;4.82;2.60;;;-2.10;99.90;;;;;;5003031;28;20039;-67
2023/12/01 09:13:08;;;;;;;5.93;2.70;;;-2.10;99.90;;;;;;5004882;28;20061;-67
2023/12/01 09:15:34;;;;;;;8.30;4.55;;;-2.00;99.90;;;;;;5006108;28;20046;-67
2023/12/01 09:17:59;;;;;;;5.32;2.85;;;-2.00;99.90;;;;;;5039050;28;20393;-67
2023/12/01 09:20:25;;;;;;;3.75;1.90;;;-2.00;99.90;;;;;;5020800;28;20061;-67
2023/12/01 09:22:51;;;;;;;3.97;3.55;;;-2.00;99.90;;;;;;5006042;28;20042;-67
2023/12/01 09:25:17;;;;;;;4.65;3.10;;;-1.90;99.90;;;;;;5006579;28;20500;-67
2023/12/01 09:27:42;;;;;;;4.07;2.22;;;-1.90;99.90;;;;;;5009274;28;20037;-66
2023/12/01 09:30:13;;;;;;;5.70;2.80;;;-1.90;99.90;;;;;;5004288;28;20034;-66
2023/12/01 09:32:40;;;;;;;6.10;3.15;;;-1.90;99.90;;;;;;5008502;28;20401;-67
2023/12/01 09:35:06;;;;;;;4.80;2.15;;;-1.90;99.90;;;;;;5010770;28;20041;-67
2023/12/01 09:37:32;;;;;;;6.07;2.22;;;-1.90;99.90;;;;;;5005015;28;20045;-67
2023/12/01 09:39:58;;;;;;;2.55;2.28;;;-1.90;99.90;;;;;;5003972;28;20354;-67
2023/12/01 09:42:24;;;;;;;3.42;2.17;;;-1.90;99.90;;;;;;5002561;28;20049;-67
2023/12/01 09:44:55;;;;;;;3.05;2.05;;;-1.80;99.90;;;;;;4998895;28;20084;-67
2023/12/01 09:47:22;;;;;;;1.23;1.13;;;-1.80;99.90;;;;;;4999497;28;20496;-67
2023/12/01 09:49:49;;;;;;;6.45;2.92;;;-1.80;99.90;;;;;;5004181;28;20051;-67
2023/12/01 09:52:15;;;;;;;6.43;3.70;;;-1.80;99.90;;;;;;4988228;28;20068;-67
2023/12/01 09:54:41;;;;;;;3.28;2.47;;;-1.70;99.90;;;;;;5019102;28;20038;-67
2023/12/01 09:57:07;;;;;;;3.75;2.63;;;-1.70;99.90;;;;;;5002303;28;20040;-67
2023/12/01 09:59:36;;;;;;;2.03;1.48;;;-1.70;99.90;;;;;;5002212;28;20045;-67
2023/12/01 10:02:03;;;;;;;3.10;2.70;;;-1.70;99.90;;;;;;4998221;28;20065;-67
2023/12/01 10:04:32;;;;;;;2.92;2.55;;;-1.60;99.90;;;;;;5036523;28;20049;-67
2023/12/01 10:07:00;;;;;;;2.50;2.22;;;-1.60;99.90;;;;;;4988914;28;20038;-67
2023/12/01 10:09:32;;;;;;;3.25;1.42;;;-1.60;99.90;;;;;;5001761;28;20070;-68
2023/12/01 10:12:12;;;;;;;2.55;1.45;;;-1.60;99.90;;;;;;5000504;28;20042;-67
2023/12/01 10:14:42;;;;;;;3.85;2.72;;;-1.50;99.90;;;;;;5036695;28;20483;-68
2023/12/01 10:17:10;;;;;;;2.80;2.28;;;-1.50;99.90;;;;;;4995757;28;20038;-68
2023/12/01 10:19:47;;;;;;;4.57;2.13;;;-1.50;99.90;;;;;;5033338;28;20094;-67
2023/12/01 10:22:15;;;;;;;3.17;2.13;;;-1.40;99.90;;;;;;5001008;28;20054;-68
2023/12/01 10:25:04;;;;;;;3.40;2.50;;;-1.40;99.90;;;;;;5033466;28;20046;-67
2023/12/01 10:27:31;;;;;;;4.85;1.60;;;-1.40;99.90;;;;;;5034145;28;20177;-68
2023/12/01 10:30:30;;;;;;;3.13;2.20;;;-1.30;99.90;;;;;;5000357;28;20057;-68
2023/12/01 10:32:55;;;;;;;2.10;1.90;;;-1.40;99.90;;;;;;4999703;28;20098;-68
2023/12/01 10:35:21;;;;;;;2.63;1.27;;;-1.30;99.90;;;;;;5033822;28;20041;-68
2023/12/01 10:37:48;;;;;;;3.85;2.47;;;-1.30;99.90;;;;;;5003131;28;20035;-68
2023/12/01 10:40:16;;;;;;;1.63;1.27;;;-1.30;99.90;;;;;;5000073;28;20041;-68
2023/12/01 10:42:45;;;;;;;3.75;1.27;;;-1.30;99.90;;;;;;5033731;28;20037;-68
2023/12/01 10:45:12;;;;;;;1.30;1.10;;;-1.30;99.90;;;;;;5028092;28;20042;-68
2023/12/01 10:47:43;;;;;;;4.05;2.35;;;-1.30;99.90;;;;;;5001265;28;20050;-68
2023/12/01 10:50:12;;;;;;;4.60;1.15;;;-1.20;99.90;;;;;;4997707;28;20183;-68
2023/12/01 10:52:40;;;;;;;8.35;1.67;;;-1.20;99.90;;;;;;4997137;28;20046;-68
2023/12/01 10:55:06;;;;;;;0.85;0.75;;;-1.10;99.90;;;;;;5031869;28;20038;-68
2023/12/01 10:57:38;;;;;;;3.70;1.67;;;-1.10;99.90;;;;;;5030617;28;20478;-68
2023/12/01 11:00:09;;;;;;;4.32;2.28;;;-1.00;99.90;;;;;;4997959;28;20104;-68
2023/12/01 11:02:38;;;;;;;17.52;1.75;;;-1.00;99.90;;;;;;5030476;28;20061;-68
2023/12/01 11:05:07;;;;;;;2.40;1.92;;;-1.00;99.90;;;;;;5030211;28;20042;-68
2023/12/01 11:07:49;;;;;;;3.97;1.75;;;-0.90;99.90;;;;;;5000283;28;20038;-68
2023/12/01 11:10:27;;;;;;;3.50;1.30;;;-0.90;99.90;;;;;;5032340;28;21467;-68
2023/12/01 11:13:24;;;;;;;4.45;2.22;;;-0.80;99.90;;;;;;5012335;28;20111;-68
2023/12/01 11:15:52;;;;;;;2.15;0.90;;;-0.80;99.90;;;;;;5029095;28;20046;-68
2023/12/01 11:18:17;;;;;;;4.30;1.20;;;-0.70;99.90;;;;;;5026704;28;20124;-68
2023/12/01 11:20:49;;;;;;;5.07;2.45;;;-0.70;99.90;;;;;;5004787;28;20073;-68
2023/12/01 11:23:22;;;;;;;8.38;2.10;;;-0.70;99.90;;;;;;5034810;28;20041;-68
2023/12/01 11:25:53;;;;;;;1.80;0.98;;;-0.70;99.90;;;;;;4994756;28;20045;-68
2023/12/01 11:28:36;;;;;;;2.47;1.73;;;-0.60;99.90;;;;;;4997126;28;20041;-68
2023/12/01 11:31:10;;;;;;;6.97;2.65;;;-0.60;99.90;;;;;;5027496;28;20635;-69
2023/12/01 11:33:49;;;;;;;2.83;1.42;;;-0.60;99.90;;;;;;4998063;28;20041;-69
2023/12/01 11:36:31;;;;;;;3.28;1.45;;;-0.50;99.90;;;;;;4996707;28;20494;-69
2023/12/01 11:39:17;;;;;;;0.88;0.68;;;-0.50;99.90;;;;;;5003004;28;20142;-69
2023/12/01 11:41:47;;;;;;;1.63;0.85;;;-0.30;99.90;;;;;;4996078;28;20478;-70
2023/12/01 11:44:23;;;;;;;2.50;1.25;;;-0.30;99.90;;;;;;5025686;28;20045;-70
2023/12/01 11:46:57;;;;;;;3.35;1.58;;;-0.20;99.90;;;;;;5025024;28;20577;-69
2023/12/01 11:49:30;;;;;;;3.50;1.95;;;0.00;99.90;;;;;;4984611;28;20149;-70
2023/12/01 11:51:57;;;;;;;3.05;1.75;;;0.10;99.90;;;;;;4999468;28;20527;-70
2023/12/01 11:54:23;;;;;;;4.78;1.88;;;0.10;99.90;;;;;;5031082;28;20063;-70
2023/12/01 11:56:51;;;;;;;2.58;1.77;;;0.10;99.90;;;;;;5034535;28;20281;-70
2023/12/01 11:59:18;;;;;;;5.80;2.17;;;0.10;99.90;;;;;;5028596;28;20052;-70
2023/12/01 12:01:44;;;;;;;3.03;1.98;;;0.20;99.90;;;;;;4996667;28;20033;-70
2023/12/01 12:04:13;;;;;;;3.30;1.90;;;0.20;99.90;;;;;;5027847;28;20073;-70
2023/12/01 12:06:41;;;;;;;4.10;1.95;;;0.20;99.90;;;;;;5000098;28;20057;-70
2023/12/01 12:09:08;;;;;;;4.63;2.30;;;0.20;99.90;;;;;;5037201;28;20042;-70
2023/12/01 12:11:35;;;;;;;2.90;1.38;;;0.20;99.90;;;;;;5002714;28;20489;-70
2023/12/01 12:14:02;;;;;;;1.20;0.82;;;0.10;99.90;;;;;;5002104;28;20036;-70
2023/12/01 12:16:28;;;;;;;4.13;2.50;;;0.00;99.90;;;;;;4999561;28;20073;-71
2023/12/01 12:18:59;;;;;;;1.15;0.93;;;0.00;99.90;;;;;;5035073;28;20057;-70
2023/12/01 12:21:29;;;;;;;2.25;1.55;;;0.00;99.90;;;;;;5002898;28;20041;-71
2023/12/01 12:23:56;;;;;;;5.13;2.95;;;0.00;99.90;;;;;;4999218;28;20042;-71
2023/12/01 12:26:25;;;;;;;4.68;2.53;;;0.10;99.90;;;;;;5036874;28;20124;-71
2023/12/01 12:28:54;;;;;;;3.45;1.88;;;0.10;99.90;;;;;;4999478;28;20057;-71
2023/12/01 12:31:27;;;;;;;6.38;2.15;;;0.10;99.90;;;;;;5020043;28;20049;-71
2023/12/01 12:33:56;;;;;;;4.97;1.55;;;0.00;99.90;;;;;;5001742;28;20042;-71
2023/12/01 12:36:31;;;;;;;3.83;1.98;;;0.10;99.90;;;;;;5038445;28;20033;-71
2023/12/01 12:38:59;;;;;;;2.58;1.95;;;0.10;99.90;;;;;;5032870;28;20134;-71
2023/12/01 12:41:29;;;;;;;7.47;1.52;;;0.00;99.90;;;;;;5025330;28;20050;-71
2023/12/01 12:44:00;;;;;;;5.70;3.22;;;0.00;99.90;;;;;;4996287;28;20684;-71
2023/12/01 12:46:28;;;;;;;1.88;1.05;;;-0.10;99.90;;;;;;4992204;28;20047;-71
2023/12/01 12:49:03;;;;;;;2.30;1.88;;;-0.10;99.90;;;;;;5031523;28;20050;-71
2023/12/01 12:51:30;;;;;;;2.85;1.63;;;-0.10;99.90;;;;;;5033409;28;20502;-71
2023/12/01 12:53:57;;;;;;;2.50;2.08;;;-0.10;99.90;;;;;;5051691;28;20068;-71
2023/12/01 12:56:24;;;;;;;7.03;3.75;;;0.00;99.90;;;;;;5031096;28;20401;-71